Time;durP1;ratioP1;P1;durP2;ratioP2;P2;SDS_P1;SDS_P2;PMS_P1;PMS_P2;Temp;Humidity;BMP_temperature;BMP_pressure;BME280_temperature;BME280_humidity;BME280_pressure;Samples;Min_cycle;Max_cycle;Signal;HPM_P1;HPM_P2
2022/11/06 00:01:27;;;;;;;65.22;20.90;;;;;;;;;;6340057;28;20043;-57
2022/11/06 00:04:28;;;;;;;60.30;19.60;;;;;;;;;;6336534;28;20167;-65
2022/11/06 00:07:29;;;;;;;54.08;19.20;;;;;;;;;;6337517;28;20090;-58
2022/11/06 00:10:30;;;;;;;62.40;20.58;;;;;;;;;;6337868;28;20044;-60
2022/11/06 00:13:31;;;;;;;64.07;20.23;;;;;;;;;;6339242;28;20044;-62
2022/11/06 00:16:32;;;;;;;61.50;21.02;;;;;;;;;;6335044;28;20298;-60
2022/11/06 00:19:32;;;;;;;65.93;20.85;;;;;;;;;;6336091;28;20469;-66
2022/11/06 00:22:37;;;;;;;61.47;22.35;;;;;;;;;;6338179;28;20058;-59
2022/11/06 00:25:41;;;;;;;64.65;21.77;;;;;;;;;;6336012;28;20040;-62
2022/11/06 00:28:42;;;;;;;67.35;22.70;;;;;;;;;;6335711;28;20069;-58
2022/11/06 00:31:43;;;;;;;65.03;22.02;;;;;;;;;;6336880;28;20867;-59
2022/11/06 00:34:43;;;;;;;62.38;21.90;;;;;;;;;;6335989;28;20039;-58
2022/11/06 00:37:44;;;;;;;64.57;21.52;;;;;;;;;;6336164;28;20042;-58
2022/11/06 00:40:45;;;;;;;64.38;24.17;;;;;;;;;;6337005;28;20063;-62
2022/11/06 00:43:51;;;;;;;64.45;21.63;;;;;;;;;;6337374;28;20073;-60
2022/11/06 00:46:52;;;;;;;58.22;21.33;;;;;;;;;;6334835;28;20039;-57
2022/11/06 00:49:52;;;;;;;57.28;20.95;;;;;;;;;;6335027;28;20079;-57
2022/11/06 00:52:54;;;;;;;57.13;19.08;;;;;;;;;;6340185;28;20403;-65
2022/11/06 00:55:54;;;;;;;62.95;19.48;;;;;;;;;;6336443;28;20512;-60
2022/11/06 00:58:58;;;;;;;58.85;19.35;;;;;;;;;;6336960;28;20051;-58
2022/11/06 01:01:58;;;;;;;59.72;18.55;;;;;;;;;;6337426;28;20055;-59
2022/11/06 01:04:59;;;;;;;57.25;19.10;;;;;;;;;;6334136;28;20047;-57
2022/11/06 01:08:00;;;;;;;56.97;18.67;;;;;;;;;;6338277;28;20085;-57
2022/11/06 01:11:07;;;;;;;48.90;17.98;;;;;;;;;;6337600;28;20047;-59
2022/11/06 01:14:12;;;;;;;54.08;17.30;;;;;;;;;;6334320;28;20493;-59
2022/11/06 01:17:12;;;;;;;56.13;18.25;;;;;;;;;;6335073;28;20063;-57
2022/11/06 01:20:13;;;;;;;48.33;17.52;;;;;;;;;;6335032;28;20413;-60
2022/11/06 01:23:13;;;;;;;48.50;16.05;;;;;;;;;;6337009;28;20055;-59
2022/11/06 01:26:14;;;;;;;55.45;17.35;;;;;;;;;;6334290;28;20071;-58
2022/11/06 01:29:17;;;;;;;54.88;17.10;;;;;;;;;;6341613;28;20070;-61
2022/11/06 01:32:17;;;;;;;44.28;15.73;;;;;;;;;;6337072;28;20052;-59
2022/11/06 01:35:18;;;;;;;46.67;16.08;;;;;;;;;;6334867;28;20093;-60
2022/11/06 01:38:18;;;;;;;50.85;17.38;;;;;;;;;;6332613;28;20067;-59
2022/11/06 01:41:26;;;;;;;49.28;16.90;;;;;;;;;;6333455;28;20485;-61
2022/11/06 01:44:42;;;;;;;50.75;17.70;;;;;;;;;;6334761;28;20055;-60
2022/11/06 01:47:43;;;;;;;50.95;19.33;;;;;;;;;;6332670;28;20502;-59
2022/11/06 01:50:46;;;;;;;56.50;19.00;;;;;;;;;;6341503;28;20108;-69
2022/11/06 01:53:47;;;;;;;49.42;17.58;;;;;;;;;;6337240;28;20050;-65
2022/11/06 01:56:50;;;;;;;52.60;18.23;;;;;;;;;;6334693;28;20055;-60
2022/11/06 01:59:53;;;;;;;55.17;16.27;;;;;;;;;;6334866;28;20040;-59
2022/11/06 02:02:54;;;;;;;53.75;17.33;;;;;;;;;;6340510;28;20055;-59
2022/11/06 02:05:56;;;;;;;48.50;18.05;;;;;;;;;;6339415;28;21232;-70
2022/11/06 02:08:58;;;;;;;48.00;19.00;;;;;;;;;;6340009;28;20499;-58
2022/11/06 02:12:01;;;;;;;57.90;21.00;;;;;;;;;;6342104;28;20039;-59
2022/11/06 02:15:05;;;;;;;56.38;19.23;;;;;;;;;;6345916;28;20054;-66
2022/11/06 02:18:34;;;;;;;55.63;19.20;;;;;;;;;;6335815;28;20044;-59
2022/11/06 02:21:54;;;;;;;55.33;19.15;;;;;;;;;;6335978;28;20048;-57
2022/11/06 02:25:07;;;;;;;54.65;19.33;;;;;;;;;;6338956;28;20048;-64
2022/11/06 02:28:30;;;;;;;58.33;22.52;;;;;;;;;;6339828;28;20048;-57
2022/11/06 02:31:33;;;;;;;59.47;19.90;;;;;;;;;;6336106;28;20047;-57
2022/11/06 02:34:37;;;;;;;51.42;18.73;;;;;;;;;;6339050;28;20035;-58
2022/11/06 02:37:40;;;;;;;44.58;18.30;;;;;;;;;;6339253;28;20039;-58
2022/11/06 02:40:49;;;;;;;50.63;17.20;;;;;;;;;;6340710;28;20039;-57
2022/11/06 02:43:53;;;;;;;50.53;17.48;;;;;;;;;;6334026;28;20514;-59
2022/11/06 02:46:58;;;;;;;43.08;16.00;;;;;;;;;;6336876;28;20044;-57
2022/11/06 02:50:23;;;;;;;59.97;18.73;;;;;;;;;;6337794;28;20060;-57
2022/11/06 02:53:25;;;;;;;48.70;17.52;;;;;;;;;;6337157;28;20854;-71
2022/11/06 02:56:30;;;;;;;50.72;18.65;;;;;;;;;;6338219;28;20070;-57
2022/11/06 02:59:51;;;;;;;52.65;19.02;;;;;;;;;;6339987;28;20054;-68
2022/11/06 03:03:00;;;;;;;47.78;17.77;;;;;;;;;;6338626;28;20044;-59
2022/11/06 03:06:09;;;;;;;55.22;20.90;;;;;;;;;;6337893;28;20039;-58
2022/11/06 03:09:16;;;;;;;54.42;19.40;;;;;;;;;;6344478;28;20454;-55
2022/11/06 03:12:42;;;;;;;56.70;20.20;;;;;;;;;;6339214;28;20044;-60
2022/11/06 03:15:50;;;;;;;55.63;22.05;;;;;;;;;;6334566;28;20070;-57
2022/11/06 03:19:02;;;;;;;49.65;18.17;;;;;;;;;;6339172;28;20959;-59
2022/11/06 03:22:06;;;;;;;52.20;18.47;;;;;;;;;;6338587;28;20470;-56
2022/11/06 03:25:32;;;;;;;47.97;18.15;;;;;;;;;;6338600;28;20296;-56
2022/11/06 03:28:38;;;;;;;53.05;21.38;;;;;;;;;;6338743;28;20051;-59
2022/11/06 03:31:49;;;;;;;64.72;21.02;;;;;;;;;;6336681;28;20043;-59
2022/11/06 03:34:56;;;;;;;54.42;19.27;;;;;;;;;;6337275;28;20140;-59
2022/11/06 03:38:08;;;;;;;60.63;21.85;;;;;;;;;;6337430;28;20462;-60
2022/11/06 03:41:15;;;;;;;68.10;23.90;;;;;;;;;;6336461;28;20133;-60
2022/11/06 03:44:24;;;;;;;63.03;24.33;;;;;;;;;;6336130;28;20490;-66
2022/11/06 03:47:30;;;;;;;63.53;25.58;;;;;;;;;;6337848;28;20482;-59
2022/11/06 03:50:43;;;;;;;67.82;25.48;;;;;;;;;;6336444;28;20055;-58
2022/11/06 03:54:01;;;;;;;65.25;25.45;;;;;;;;;;6332460;28;20043;-59
2022/11/06 03:57:08;;;;;;;59.45;21.27;;;;;;;;;;6335802;28;20485;-58
2022/11/06 04:00:09;;;;;;;60.72;20.77;;;;;;;;;;6342827;28;20055;-59
2022/11/06 04:03:21;;;;;;;64.68;20.60;;;;;;;;;;6340292;28;20451;-60
2022/11/06 04:06:25;;;;;;;55.33;20.77;;;;;;;;;;6339671;28;20044;-62
2022/11/06 04:16:11;;;;;;;55.13;17.98;;;;;;;;;;6339358;28;20050;-58
2022/11/06 04:19:16;;;;;;;51.42;18.40;;;;;;;;;;6334780;28;20069;-57
2022/11/06 04:22:50;;;;;;;58.25;18.08;;;;;;;;;;6340525;28;20048;-60
2022/11/06 04:29:19;;;;;;;;;;;;;;;;;;6337574;28;20094;-58
2022/11/06 04:32:37;;;;;;;55.72;18.63;;;;;;;;;;6334992;28;20026;-58
2022/11/06 04:35:41;;;;;;;58.17;19.35;;;;;;;;;;6335689;28;20058;-57
2022/11/06 04:39:06;;;;;;;63.78;19.63;;;;;;;;;;6337804;28;20047;-58
2022/11/06 04:42:07;;;;;;;86.53;28.38;;;;;;;;;;6340078;28;20039;-58
2022/11/06 04:45:13;;;;;;;69.63;24.02;;;;;;;;;;6333917;28;20044;-58
2022/11/06 04:48:15;;;;;;;48.22;18.10;;;;;;;;;;6335389;28;20051;-59
2022/11/06 04:51:21;;;;;;;46.05;16.65;;;;;;;;;;6313916;28;20068;-61
2022/11/06 04:54:21;;;;;;;48.75;17.65;;;;;;;;;;6328042;28;20059;-58
2022/11/06 04:57:23;;;;;;;50.95;17.73;;;;;;;;;;6335027;28;20054;-58
2022/11/06 05:00:25;;;;;;;49.42;17.92;;;;;;;;;;6334382;28;20572;-57
2022/11/06 05:03:25;;;;;;;50.80;18.60;;;;;;;;;;6333278;28;20501;-59
2022/11/06 05:06:26;;;;;;;57.17;20.90;;;;;;;;;;6329764;28;20311;-59
2022/11/06 05:09:27;;;;;;;59.67;21.00;;;;;;;;;;6330769;28;20059;-57
2022/11/06 05:12:27;;;;;;;55.95;19.63;;;;;;;;;;6334584;28;20047;-58
2022/11/06 05:15:28;;;;;;;59.05;20.95;;;;;;;;;;6334299;28;20120;-58
2022/11/06 05:18:29;;;;;;;61.22;22.30;;;;;;;;;;6338225;28;20116;-59
2022/11/06 05:24:49;;;;;;;66.18;25.58;;;;;;;;;;6334640;28;20405;-63
2022/11/06 05:27:50;;;;;;;65.20;27.58;;;;;;;;;;6335791;28;20043;-57
2022/11/06 05:30:51;;;;;;;67.30;28.58;;;;;;;;;;6335659;28;20067;-58
2022/11/06 05:33:51;;;;;;;70.80;26.50;;;;;;;;;;6338924;28;20409;-57
2022/11/06 05:36:52;;;;;;;64.90;25.77;;;;;;;;;;6332709;28;20136;-58
2022/11/06 05:39:52;;;;;;;65.15;25.30;;;;;;;;;;6339257;28;20035;-57
2022/11/06 05:42:53;;;;;;;56.20;15.75;;;;;;;;;;6343700;28;20052;-59
2022/11/06 05:45:54;;;;;;;67.93;16.63;;;;;;;;;;6342949;28;20044;-59
2022/11/06 05:48:54;;;;;;;56.03;21.08;;;;;;;;;;6346222;28;20043;-58
2022/11/06 05:51:55;;;;;;;61.95;21.30;;;;;;;;;;6338564;28;20552;-58
2022/11/06 05:54:56;;;;;;;44.85;16.77;;;;;;;;;;6328221;28;20414;-71
2022/11/06 05:57:56;;;;;;;52.88;19.08;;;;;;;;;;6344783;28;20466;-59
2022/11/06 06:00:58;;;;;;;48.15;19.80;;;;;;;;;;6345652;28;20451;-68
2022/11/06 06:03:58;;;;;;;50.22;18.50;;;;;;;;;;6344562;28;20051;-58
2022/11/06 06:06:59;;;;;;;42.90;16.23;;;;;;;;;;6326163;28;20044;-59
2022/11/06 06:10:00;;;;;;;42.33;14.18;;;;;;;;;;6343071;28;20039;-58
2022/11/06 06:13:00;;;;;;;44.88;15.45;;;;;;;;;;6343212;28;20084;-56
2022/11/06 06:16:01;;;;;;;46.60;18.25;;;;;;;;;;6331477;28;20118;-56
2022/11/06 06:19:02;;;;;;;39.80;15.43;;;;;;;;;;6343512;28;20104;-61
2022/11/06 06:22:02;;;;;;;44.33;17.48;;;;;;;;;;6324640;28;20048;-72
2022/11/06 06:25:03;;;;;;;44.15;16.83;;;;;;;;;;6342167;28;20083;-58
2022/11/06 06:28:04;;;;;;;39.90;17.38;;;;;;;;;;6343031;28;20490;-56
2022/11/06 06:31:06;;;;;;;45.65;18.23;;;;;;;;;;6343381;28;20142;-58
2022/11/06 06:34:07;;;;;;;48.65;18.10;;;;;;;;;;6341714;28;20047;-59
2022/11/06 06:37:08;;;;;;;51.22;20.52;;;;;;;;;;6342660;28;20074;-57
2022/11/06 06:40:09;;;;;;;56.22;21.98;;;;;;;;;;6344511;28;20055;-58
2022/11/06 06:43:09;;;;;;;53.27;18.23;;;;;;;;;;6344129;28;20048;-57
2022/11/06 06:46:10;;;;;;;44.22;14.48;;;;;;;;;;6339102;28;20052;-56
2022/11/06 06:49:10;;;;;;;39.55;16.23;;;;;;;;;;6345614;28;20048;-56
2022/11/06 06:52:11;;;;;;;41.55;15.05;;;;;;;;;;6339933;28;20055;-68
2022/11/06 06:55:12;;;;;;;41.72;16.35;;;;;;;;;;6334054;28;20043;-59
2022/11/06 06:58:12;;;;;;;45.35;17.33;;;;;;;;;;6337276;28;20097;-57
2022/11/06 07:01:13;;;;;;;48.75;19.70;;;;;;;;;;6342274;28;20410;-56
2022/11/06 07:04:14;;;;;;;65.35;24.13;;;;;;;;;;6342858;28;20056;-72
2022/11/06 07:07:14;;;;;;;92.13;33.40;;;;;;;;;;6343576;28;20532;-63
2022/11/06 07:10:15;;;;;;;64.07;25.23;;;;;;;;;;6338418;28;20044;-59
2022/11/06 07:13:16;;;;;;;49.70;20.88;;;;;;;;;;6341835;28;20440;-60
2022/11/06 07:16:17;;;;;;;48.92;22.10;;;;;;;;;;6332307;28;20039;-60
2022/11/06 07:19:17;;;;;;;79.68;32.47;;;;;;;;;;6338041;28;20492;-58
2022/11/06 07:22:18;;;;;;;114.90;44.95;;;;;;;;;;6340700;28;20052;-58
2022/11/06 07:25:18;;;;;;;235.95;66.60;;;;;;;;;;6338897;28;20055;-58
2022/11/06 07:28:19;;;;;;;431.13;112.88;;;;;;;;;;6339580;28;20105;-53
2022/11/06 07:31:20;;;;;;;279.73;74.40;;;;;;;;;;6341213;28;20493;-60
2022/11/06 07:34:20;;;;;;;147.52;47.20;;;;;;;;;;6344061;28;20059;-64
2022/11/06 07:37:21;;;;;;;125.88;40.55;;;;;;;;;;6344236;28;20044;-61
2022/11/06 07:40:22;;;;;;;136.20;43.25;;;;;;;;;;6345235;28;20471;-64
2022/11/06 07:43:23;;;;;;;125.80;42.47;;;;;;;;;;6344382;28;20075;-61
2022/11/06 07:46:24;;;;;;;113.95;37.63;;;;;;;;;;6343368;28;20079;-60
2022/11/06 07:49:24;;;;;;;92.40;32.30;;;;;;;;;;6344631;28;20044;-60
2022/11/06 07:52:25;;;;;;;78.35;28.40;;;;;;;;;;6343954;28;20058;-60
2022/11/06 07:55:26;;;;;;;68.85;23.80;;;;;;;;;;6343218;28;20040;-60
2022/11/06 07:58:27;;;;;;;66.82;23.35;;;;;;;;;;6344717;28;20088;-60
2022/11/06 08:01:28;;;;;;;64.57;24.60;;;;;;;;;;6336657;28;20454;-60
2022/11/06 08:04:29;;;;;;;85.00;32.67;;;;;;;;;;6335671;28;20043;-60
2022/11/06 08:07:29;;;;;;;84.05;32.38;;;;;;;;;;6340744;28;20040;-62
2022/11/06 08:10:30;;;;;;;86.43;31.30;;;;;;;;;;6344501;28;20507;-62
2022/11/06 08:13:32;;;;;;;84.72;30.50;;;;;;;;;;6343998;28;20085;-61
2022/11/06 08:16:33;;;;;;;83.53;29.23;;;;;;;;;;6342342;28;20429;-65
2022/11/06 08:19:34;;;;;;;61.78;22.30;;;;;;;;;;6339428;28;20054;-62
2022/11/06 08:22:34;;;;;;;57.97;22.48;;;;;;;;;;6343233;28;20039;-64
2022/11/06 08:25:35;;;;;;;65.07;24.92;;;;;;;;;;6333762;28;20066;-63
2022/11/06 08:28:36;;;;;;;85.00;36.90;;;;;;;;;;6343397;28;20050;-64
2022/11/06 08:31:37;;;;;;;74.72;28.75;;;;;;;;;;6343510;28;20048;-65
2022/11/06 08:34:37;;;;;;;76.53;30.60;;;;;;;;;;6342212;28;20048;-68
2022/11/06 08:37:38;;;;;;;62.63;24.08;;;;;;;;;;6337283;28;20109;-63
2022/11/06 08:40:39;;;;;;;65.38;24.25;;;;;;;;;;6342429;28;20054;-62
2022/11/06 08:43:40;;;;;;;54.60;19.52;;;;;;;;;;6338359;28;20048;-64
2022/11/06 08:46:40;;;;;;;50.92;19.33;;;;;;;;;;6333230;28;20043;-63
2022/11/06 08:49:41;;;;;;;62.60;20.42;;;;;;;;;;6317025;28;20143;-62
2022/11/06 08:52:41;;;;;;;72.75;21.30;;;;;;;;;;6320913;28;20043;-63
2022/11/06 08:55:42;;;;;;;97.45;23.08;;;;;;;;;;6316304;28;20040;-63
2022/11/06 08:58:43;;;;;;;62.17;16.10;;;;;;;;;;6326633;28;20402;-63
2022/11/06 09:01:43;;;;;;;46.65;15.13;;;;;;;;;;6336319;28;20427;-61
2022/11/06 09:04:44;;;;;;;45.70;15.35;;;;;;;;;;6340901;28;20039;-62
2022/11/06 09:07:45;;;;;;;40.58;13.40;;;;;;;;;;6343218;28;20047;-64
2022/11/06 09:10:45;;;;;;;42.60;13.45;;;;;;;;;;6343176;28;20044;-63
2022/11/06 09:13:46;;;;;;;33.63;12.70;;;;;;;;;;6341908;28;20047;-64
2022/11/06 09:16:46;;;;;;;47.17;18.10;;;;;;;;;;6342786;28;20493;-64
2022/11/06 09:19:47;;;;;;;57.03;20.30;;;;;;;;;;6342202;28;20455;-63
2022/11/06 09:22:48;;;;;;;46.10;19.05;;;;;;;;;;6340112;28;20040;-69
2022/11/06 09:25:49;;;;;;;54.83;20.23;;;;;;;;;;6339107;28;20190;-71
2022/11/06 09:28:49;;;;;;;63.42;23.48;;;;;;;;;;6340602;28;20131;-69
2022/11/06 09:31:50;;;;;;;65.38;23.42;;;;;;;;;;6340920;28;20506;-73
2022/11/06 09:34:50;;;;;;;63.53;23.73;;;;;;;;;;6332133;28;20483;-70
2022/11/06 09:37:51;;;;;;;57.05;21.70;;;;;;;;;;6326135;28;20077;-63
2022/11/06 09:40:56;;;;;;;64.25;24.13;;;;;;;;;;6342077;28;20058;-62
2022/11/06 09:44:09;;;;;;;56.40;20.85;;;;;;;;;;6340186;28;20123;-63
2022/11/06 09:47:20;;;;;;;73.28;26.15;;;;;;;;;;6342217;28;20055;-63
2022/11/06 09:50:27;;;;;;;55.47;22.97;;;;;;;;;;6338802;28;20078;-62
2022/11/06 09:53:47;;;;;;;51.08;20.30;;;;;;;;;;6336885;28;20044;-62
2022/11/06 09:56:53;;;;;;;54.05;19.25;;;;;;;;;;6337012;28;20044;-61
2022/11/06 09:59:54;;;;;;;57.85;20.50;;;;;;;;;;6340986;28;20462;-63
2022/11/06 10:03:22;;;;;;;48.53;18.92;;;;;;;;;;6340286;28;20051;-62
2022/11/06 10:06:23;;;;;;;42.03;14.85;;;;;;;;;;6331024;28;20055;-62
2022/11/06 10:09:24;;;;;;;49.88;19.48;;;;;;;;;;6340564;28;20131;-62
2022/11/06 10:12:43;;;;;;;43.83;16.23;;;;;;;;;;6342342;28;20463;-61
2022/11/06 10:15:52;;;;;;;42.83;15.98;;;;;;;;;;6340797;28;20044;-61
2022/11/06 10:19:00;;;;;;;37.95;14.80;;;;;;;;;;6340506;28;20075;-61
2022/11/06 10:22:06;;;;;;;34.65;12.43;;;;;;;;;;6340946;28;20083;-61
2022/11/06 10:25:22;;;;;;;35.70;13.63;;;;;;;;;;6345044;28;20051;-62
2022/11/06 10:28:51;;;;;;;39.30;13.60;;;;;;;;;;6343935;28;20482;-62
2022/11/06 10:31:54;;;;;;;43.22;13.43;;;;;;;;;;6345467;28;20127;-60
2022/11/06 10:35:05;;;;;;;41.70;14.45;;;;;;;;;;6345119;28;20549;-61
2022/11/06 10:38:12;;;;;;;37.10;12.70;;;;;;;;;;6343634;28;20130;-61
2022/11/06 10:41:25;;;;;;;35.15;12.45;;;;;;;;;;6343299;28;20046;-63
2022/11/06 10:44:32;;;;;;;;;;;;;;;;;;6343133;28;20054;-62
2022/11/06 10:47:49;;;;;;;59.25;20.60;;;;;;;;;;6346162;28;19923;-64
2022/11/06 10:51:13;;;;;;;35.97;12.93;;;;;;;;;;6345539;28;20130;-61
2022/11/06 10:54:32;;;;;;;29.20;12.25;;;;;;;;;;6330710;28;20047;-61
2022/11/06 10:57:54;;;;;;;38.00;13.35;;;;;;;;;;6344476;28;20071;-62
2022/11/06 11:01:00;;;;;;;35.30;12.25;;;;;;;;;;6336318;28;20104;-62
2022/11/06 11:04:00;;;;;;;26.98;11.07;;;;;;;;;;6332403;28;20050;-60
2022/11/06 11:07:21;;;;;;;26.98;11.75;;;;;;;;;;6342682;28;20402;-63
2022/11/06 11:10:22;;;;;;;34.17;14.13;;;;;;;;;;6343009;28;20035;-62
2022/11/06 11:13:23;;;;;;;36.08;12.85;;;;;;;;;;6344698;28;20504;-64
2022/11/06 11:16:27;;;;;;;36.65;12.73;;;;;;;;;;6345610;28;20054;-62
2022/11/06 11:19:40;;;;;;;31.70;11.00;;;;;;;;;;6344353;28;20079;-62
2022/11/06 11:22:41;;;;;;;33.28;13.32;;;;;;;;;;6319671;28;20062;-62
2022/11/06 11:25:44;;;;;;;28.23;12.43;;;;;;;;;;6323257;28;20135;-62
2022/11/06 11:28:57;;;;;;;34.25;12.55;;;;;;;;;;6325556;28;20509;-62
2022/11/06 11:32:01;;;;;;;40.08;13.48;;;;;;;;;;6318843;28;20051;-62
2022/11/06 11:35:09;;;;;;;29.67;11.30;;;;;;;;;;6318389;28;20499;-62
2022/11/06 11:38:12;;;;;;;28.40;10.15;;;;;;;;;;6303207;28;20064;-62
2022/11/06 11:41:20;;;;;;;25.23;8.15;;;;;;;;;;6318061;28;20055;-61
2022/11/06 11:44:21;;;;;;;26.02;8.65;;;;;;;;;;6321562;28;20620;-61
2022/11/06 11:47:23;;;;;;;22.38;8.27;;;;;;;;;;6318842;28;20068;-62
2022/11/06 11:50:31;;;;;;;25.10;8.90;;;;;;;;;;6320797;28;20068;-61
2022/11/06 11:53:31;;;;;;;29.75;8.13;;;;;;;;;;6320602;28;20802;-61
2022/11/06 11:56:33;;;;;;;23.60;7.53;;;;;;;;;;6321497;28;20055;-61
2022/11/06 11:59:47;;;;;;;25.48;7.93;;;;;;;;;;6324012;28;20461;-61
2022/11/06 12:03:16;;;;;;;21.70;7.32;;;;;;;;;;6305950;28;20048;-61
2022/11/06 12:06:18;;;;;;;28.23;7.32;;;;;;;;;;6317328;28;20043;-61
2022/11/06 12:09:19;;;;;;;20.17;7.20;;;;;;;;;;6319149;28;20108;-62
2022/11/06 12:12:30;;;;;;;21.67;7.25;;;;;;;;;;6318526;28;20041;-61
2022/11/06 12:15:43;;;;;;;24.25;7.63;;;;;;;;;;6315837;28;20058;-62
2022/11/06 12:18:48;;;;;;;;;;;;;;;;;;6316324;28;20547;-62
2022/11/06 12:21:55;;;;;;;16.38;7.30;;;;;;;;;;6315680;28;19930;-62
2022/11/06 12:25:12;;;;;;;21.30;7.28;;;;;;;;;;6319779;28;20048;-62
2022/11/06 12:28:17;;;;;;;35.92;11.65;;;;;;;;;;6323035;28;20059;-62
2022/11/06 12:31:40;;;;;;;34.58;11.10;;;;;;;;;;6320497;28;20047;-62
2022/11/06 12:34:54;;;;;;;19.48;7.30;;;;;;;;;;6321632;28;20125;-62
2022/11/06 12:38:17;;;;;;;16.40;6.75;;;;;;;;;;6320774;28;20911;-62
2022/11/06 12:41:25;;;;;;;18.92;6.65;;;;;;;;;;6315652;28;20047;-61
2022/11/06 12:44:26;;;;;;;27.17;8.80;;;;;;;;;;6315583;28;20052;-63
2022/11/06 12:47:41;;;;;;;23.38;8.70;;;;;;;;;;6318952;28;20047;-62
2022/11/06 12:50:55;;;;;;;31.23;11.27;;;;;;;;;;6322534;28;20056;-62
2022/11/06 12:54:11;;;;;;;20.73;7.80;;;;;;;;;;6317298;28;20062;-62
2022/11/06 12:57:35;;;;;;;40.83;10.98;;;;;;;;;;6321208;28;20641;-62
2022/11/06 13:01:10;;;;;;;42.60;11.43;;;;;;;;;;6320248;28;20171;-62
2022/11/06 13:04:28;;;;;;;46.78;12.38;;;;;;;;;;6319856;28;20047;-61
2022/11/06 13:08:06;;;;;;;43.47;12.25;;;;;;;;;;6320373;28;20043;-61
2022/11/06 13:11:20;;;;;;;28.77;11.52;;;;;;;;;;6313778;28;20056;-61
2022/11/06 13:14:30;;;;;;;31.20;12.77;;;;;;;;;;6322597;28;20050;-62
2022/11/06 13:17:54;;;;;;;34.72;12.40;;;;;;;;;;6321946;28;20048;-61
2022/11/06 13:21:00;;;;;;;30.30;13.10;;;;;;;;;;6318133;28;20052;-60
2022/11/06 13:24:10;;;;;;;31.10;12.20;;;;;;;;;;6319953;28;20043;-65
2022/11/06 13:27:26;;;;;;;29.95;12.20;;;;;;;;;;6323622;28;20093;-61
2022/11/06 13:30:28;;;;;;;61.30;15.60;;;;;;;;;;6314359;28;20059;-61
2022/11/06 13:33:35;;;;;;;30.55;11.93;;;;;;;;;;6319377;28;20048;-61
2022/11/06 13:36:36;;;;;;;29.75;11.50;;;;;;;;;;6316918;28;20162;-61
2022/11/06 13:40:05;;;;;;;24.42;10.57;;;;;;;;;;6312817;28;20112;-62
2022/11/06 13:43:08;;;;;;;33.33;11.77;;;;;;;;;;6315625;28;20132;-61
2022/11/06 13:46:40;;;;;;;35.25;13.65;;;;;;;;;;6316167;28;20428;-61
2022/11/06 13:49:51;;;;;;;28.00;12.90;;;;;;;;;;6316860;28;20095;-61
2022/11/06 13:53:06;;;;;;;41.85;21.23;;;;;;;;;;6315660;28;20048;-61
2022/11/06 13:56:28;;;;;;;33.40;13.90;;;;;;;;;;6316901;28;20059;-61
2022/11/06 13:59:53;;;;;;;32.05;12.90;;;;;;;;;;6315959;28;20444;-61
2022/11/06 14:03:13;;;;;;;33.63;12.60;;;;;;;;;;6318050;28;20043;-61
2022/11/06 14:06:21;;;;;;;40.17;15.85;;;;;;;;;;6321175;28;20074;-62
2022/11/06 14:09:24;;;;;;;36.53;15.05;;;;;;;;;;6319873;28;20138;-62
2022/11/06 14:12:26;;;;;;;40.90;16.73;;;;;;;;;;6318036;28;20497;-62
2022/11/06 14:15:36;;;;;;;38.80;14.13;;;;;;;;;;6315430;28;20093;-62
2022/11/06 14:18:37;;;;;;;45.08;16.40;;;;;;;;;;6321690;28;20544;-61
2022/11/06 14:21:51;;;;;;;38.08;19.63;;;;;;;;;;6297257;28;20052;-61
2022/11/06 14:24:52;;;;;;;32.78;14.63;;;;;;;;;;6318891;28;20593;-61
2022/11/06 14:27:53;;;;;;;39.03;14.70;;;;;;;;;;6318336;28;20059;-61
2022/11/06 14:30:54;;;;;;;36.90;13.50;;;;;;;;;;6317596;28;20046;-61
2022/11/06 14:33:58;;;;;;;31.08;14.32;;;;;;;;;;6319090;28;20058;-60
2022/11/06 14:37:17;;;;;;;28.90;12.48;;;;;;;;;;6317098;28;20044;-61
2022/11/06 14:40:30;;;;;;;25.13;11.32;;;;;;;;;;6314974;28;20050;-61
2022/11/06 14:43:33;;;;;;;32.30;11.75;;;;;;;;;;6318867;28;20051;-61
2022/11/06 14:46:34;;;;;;;28.77;12.60;;;;;;;;;;6316277;28;20486;-61
2022/11/06 14:49:47;;;;;;;33.78;12.35;;;;;;;;;;6320374;28;20064;-62
2022/11/06 14:52:59;;;;;;;31.20;13.10;;;;;;;;;;6318539;28;20040;-63
2022/11/06 14:56:03;;;;;;;32.53;13.43;;;;;;;;;;6318711;28;20526;-63
2022/11/06 14:59:27;;;;;;;48.22;19.77;;;;;;;;;;6317123;28;20082;-62
2022/11/06 15:02:29;;;;;;;39.58;14.40;;;;;;;;;;6315379;28;20055;-62
2022/11/06 15:05:35;;;;;;;40.67;14.95;;;;;;;;;;6320024;28;20765;-62
2022/11/06 15:08:45;;;;;;;44.22;14.73;;;;;;;;;;6318774;28;20581;-62
2022/11/06 15:11:50;;;;;;;42.35;15.05;;;;;;;;;;6317136;28;20047;-62
2022/11/06 15:14:52;;;;;;;42.28;14.63;;;;;;;;;;6318624;28;20048;-61
2022/11/06 15:17:55;;;;;;;51.53;19.05;;;;;;;;;;6318882;28;20044;-61
2022/11/06 15:21:00;;;;;;;45.55;15.98;;;;;;;;;;6312478;28;20074;-62
2022/11/06 15:24:08;;;;;;;54.25;16.95;;;;;;;;;;6316227;28;20047;-60
2022/11/06 15:27:15;;;;;;;59.13;21.77;;;;;;;;;;6317251;28;20082;-63
2022/11/06 15:30:18;;;;;;;39.55;16.58;;;;;;;;;;6319929;28;20048;-63
2022/11/06 15:33:26;;;;;;;37.15;13.48;;;;;;;;;;6323759;28;20043;-61
2022/11/06 15:36:33;;;;;;;33.65;12.48;;;;;;;;;;6327056;28;20105;-61
2022/11/06 15:39:48;;;;;;;35.83;14.05;;;;;;;;;;6321980;28;20044;-61
2022/11/06 15:42:49;;;;;;;31.38;12.13;;;;;;;;;;6320794;28;20051;-61
2022/11/06 15:46:13;;;;;;;30.45;13.20;;;;;;;;;;6323705;28;20801;-61
2022/11/06 15:49:19;;;;;;;33.45;13.75;;;;;;;;;;6319238;28;20380;-61
2022/11/06 15:52:23;;;;;;;37.88;15.50;;;;;;;;;;6316581;28;20044;-61
2022/11/06 15:55:28;;;;;;;41.08;16.15;;;;;;;;;;6324296;28;20044;-61
2022/11/06 15:58:36;;;;;;;45.13;16.42;;;;;;;;;;6320498;28;20060;-60
2022/11/06 16:01:38;;;;;;;48.72;18.63;;;;;;;;;;6315926;28;20056;-61
2022/11/06 16:04:39;;;;;;;47.53;20.42;;;;;;;;;;6322555;28;20055;-61
2022/11/06 16:07:42;;;;;;;49.63;18.80;;;;;;;;;;6318366;28;20473;-60
2022/11/06 16:10:44;;;;;;;44.63;19.90;;;;;;;;;;6318296;28;20082;-61
2022/11/06 16:13:45;;;;;;;47.33;19.98;;;;;;;;;;6319626;28;20059;-61
2022/11/06 16:16:50;;;;;;;47.28;18.90;;;;;;;;;;6321467;28;20051;-60
2022/11/06 16:19:54;;;;;;;49.00;18.83;;;;;;;;;;6320841;28;20413;-61
2022/11/06 16:22:55;;;;;;;53.40;21.65;;;;;;;;;;6321913;28;20101;-60
2022/11/06 16:26:02;;;;;;;60.03;21.63;;;;;;;;;;6315821;28;20452;-60
2022/11/06 16:29:15;;;;;;;61.25;26.90;;;;;;;;;;6326501;28;20048;-60
2022/11/06 16:32:22;;;;;;;73.55;32.33;;;;;;;;;;6311164;28;20055;-60
2022/11/06 16:35:33;;;;;;;77.60;29.88;;;;;;;;;;6318055;28;20478;-60
2022/11/06 16:38:45;;;;;;;60.42;25.33;;;;;;;;;;6324919;28;20048;-60
2022/11/06 16:42:11;;;;;;;75.90;28.10;;;;;;;;;;6313933;28;20116;-60
2022/11/06 16:45:19;;;;;;;70.07;26.85;;;;;;;;;;6318741;28;20826;-59
2022/11/06 16:48:33;;;;;;;73.05;30.60;;;;;;;;;;6317555;28;20047;-60
2022/11/06 16:51:34;;;;;;;81.68;28.85;;;;;;;;;;6313546;28;20051;-60
2022/11/06 16:54:36;;;;;;;88.25;32.67;;;;;;;;;;6321749;28;20076;-59
2022/11/06 16:57:48;;;;;;;131.25;42.45;;;;;;;;;;6320270;28;20064;-60
2022/11/06 17:01:09;;;;;;;132.52;43.35;;;;;;;;;;6315494;28;20040;-60
2022/11/06 17:04:25;;;;;;;122.47;41.13;;;;;;;;;;6318832;28;20166;-60
2022/11/06 17:07:26;;;;;;;106.82;37.70;;;;;;;;;;6319538;28;20047;-62
2022/11/06 17:10:40;;;;;;;90.75;32.47;;;;;;;;;;6311117;28;20055;-60
2022/11/06 17:13:44;;;;;;;80.32;31.48;;;;;;;;;;6317950;28;20093;-58
2022/11/06 17:16:49;;;;;;;84.78;32.25;;;;;;;;;;6325131;28;20063;-60
2022/11/06 17:19:50;;;;;;;90.50;32.40;;;;;;;;;;6319797;28;20052;-60
2022/11/06 17:22:51;;;;;;;99.03;36.10;;;;;;;;;;6316867;28;20048;-61
2022/11/06 17:25:55;;;;;;;128.63;52.63;;;;;;;;;;6314762;28;20518;-59
2022/11/06 17:28:57;;;;;;;110.00;39.78;;;;;;;;;;6302890;28;20047;-61
2022/11/06 17:31:58;;;;;;;94.23;35.83;;;;;;;;;;6314407;28;20135;-60
2022/11/06 17:34:58;;;;;;;97.28;37.22;;;;;;;;;;6320655;28;20418;-61
2022/11/06 17:37:59;;;;;;;91.10;35.97;;;;;;;;;;6322888;28;20047;-61
2022/11/06 17:40:59;;;;;;;104.68;39.67;;;;;;;;;;6322908;28;20051;-61
2022/11/06 17:44:11;;;;;;;96.88;35.08;;;;;;;;;;6323675;28;20055;-61
2022/11/06 17:47:12;;;;;;;102.43;35.72;;;;;;;;;;6323884;28;20052;-60
2022/11/06 17:50:13;;;;;;;106.72;41.67;;;;;;;;;;6319060;28;20417;-61
2022/11/06 17:53:13;;;;;;;102.00;35.10;;;;;;;;;;6320881;28;20056;-61
2022/11/06 17:56:14;;;;;;;114.68;39.97;;;;;;;;;;6325090;28;20470;-61
2022/11/06 17:59:15;;;;;;;96.30;38.47;;;;;;;;;;6320622;28;20063;-58
2022/11/06 18:02:16;;;;;;;93.82;36.35;;;;;;;;;;6321452;28;20064;-61
2022/11/06 18:05:16;;;;;;;96.33;35.03;;;;;;;;;;6327751;28;20054;-61
2022/11/06 18:08:17;;;;;;;107.15;37.00;;;;;;;;;;6321194;28;20547;-60
2022/11/06 18:11:17;;;;;;;105.07;38.83;;;;;;;;;;6322828;28;20080;-60
2022/11/06 18:14:19;;;;;;;101.57;39.88;;;;;;;;;;6321540;28;20574;-61
2022/11/06 18:17:20;;;;;;;99.60;37.10;;;;;;;;;;6321036;28;20047;-61